North Londonderry, Pennsylvania
Current Conditions -  °F | °C
As of 3:58 PM on Sunday 23 Nov 2014 (Local Time) from KMUI Reporting Station
Broken Clouds Broken Clouds  
Wind Chill: 54°   Ceiling: 19000
Heat Index: 54°   Visibility: 10mi
Dew Point: 27°   Wind: 5mph
Humidity: 35%   Direction: 120°ESE
Pressure: 30.08"   Gusts: NA
Location:  40.2909°N, 76.5834°W
Report Text: KMUI 232058Z AUTO 12004KT 10SM BKN190 12/M03 A3008 RMK AO2 SLP192 T01221028 57012 $
Loading
Personal Weather Stations






























Interactive Weather Map New forecast layout! Learn more

10-Day Weather Forecast

Advertisements
Track Severe Weather on mobile